Time;durP1;ratioP1;P1;durP2;ratioP2;P2;SDS_P1;SDS_P2;PMS_P1;PMS_P2;Temp;Humidity;BMP_temperature;BMP_pressure;BME280_temperature;BME280_humidity;BME280_pressure;Samples;Min_cycle;Max_cycle;Signal;HPM_P1;HPM_P2
2022/12/06 00:04:32;;;;;;;5.82;3.28;;;;;;;-4.60;78.67;101741.06;10609394;27;20042;-76
2022/12/06 00:09:35;;;;;;;4.72;2.80;;;;;;;-4.30;78.20;101725.56;10608844;27;20286;-78
2022/12/06 00:14:37;;;;;;;5.97;3.03;;;;;;;-4.09;77.39;101717.16;10576894;28;20502;-77
2022/12/06 00:19:39;;;;;;;5.50;3.25;;;;;;;-4.26;77.12;101718.88;10607573;27;20051;-79
2022/12/06 00:24:41;;;;;;;3.42;2.80;;;;;;;-4.33;76.83;101709.81;10605159;27;20043;-79
2022/12/06 00:29:43;;;;;;;5.13;2.63;;;;;;;-4.20;76.96;101699.47;10628221;27;20386;-79
2022/12/06 00:34:46;;;;;;;5.40;3.63;;;;;;;-4.28;76.67;101686.06;10622200;27;20039;-79
2022/12/06 00:39:48;;;;;;;4.97;3.03;;;;;;;-4.35;76.34;101684.97;10617092;27;20046;-79
2022/12/06 00:44:50;;;;;;;4.22;2.92;;;;;;;-4.50;76.84;101665.16;10652022;27;20043;-79
2022/12/06 00:49:52;;;;;;;6.05;3.38;;;;;;;-4.63;76.60;101661.06;10621895;27;20421;-78
2022/12/06 00:54:54;;;;;;;7.25;3.38;;;;;;;-4.56;77.30;101658.56;10595103;28;20036;-79
2022/12/06 00:59:56;;;;;;;5.10;3.60;;;;;;;-4.70;77.80;101646.59;10636459;27;20080;-79
2022/12/06 01:04:58;;;;;;;7.63;3.90;;;;;;;-4.64;78.28;101653.19;10596265;27;20032;-79
2022/12/06 01:10:01;;;;;;;7.45;3.33;;;;;;;-4.76;78.34;101649.06;10612457;28;20044;-79
2022/12/06 01:15:03;;;;;;;8.80;3.88;;;;;;;-4.70;78.44;101633.19;10609304;28;20051;-79
2022/12/06 01:20:06;;;;;;;10.80;4.90;;;;;;;-4.57;78.42;101612.19;10601661;28;20054;-78
2022/12/06 01:25:08;;;;;;;7.55;4.43;;;;;;;-4.66;78.58;101601.63;10588389;28;20414;-78
2022/12/06 01:30:11;;;;;;;8.85;4.85;;;;;;;-4.81;79.06;101593.31;10569717;28;20043;-78
2022/12/06 01:35:13;;;;;;;6.35;3.95;;;;;;;-4.94;79.91;101587.53;10592156;28;20043;-78
2022/12/06 01:40:15;;;;;;;6.88;4.13;;;;;;;-4.87;80.54;101564.50;10588499;28;20524;-78
2022/12/06 01:45:17;;;;;;;8.40;4.38;;;;;;;-4.75;80.73;101573.94;10576846;28;20078;-77
2022/12/06 01:50:23;;;;;;;6.38;3.95;;;;;;;-4.86;81.10;101553.66;10571835;28;20035;-79
2022/12/06 01:55:30;;;;;;;6.15;4.10;;;;;;;-4.83;81.34;101548.97;10609244;28;20382;-78
2022/12/06 02:00:32;;;;;;;11.48;5.40;;;;;;;-4.63;81.33;101548.56;10579354;27;20043;-79
2022/12/06 02:05:35;;;;;;;9.90;5.18;;;;;;;-4.89;81.45;101531.69;10618724;27;20062;-79
2022/12/06 02:10:38;;;;;;;7.75;4.32;;;;;;;-5.09;81.00;101531.06;10599047;27;20393;-78
2022/12/06 02:16:05;;;;;;;8.38;4.60;;;;;;;-4.64;81.65;101519.28;10603144;27;20068;-79
2022/12/06 02:21:36;;;;;;;8.95;4.32;;;;;;;-4.72;80.52;101500.50;10613722;27;20040;-78
2022/12/06 02:27:19;;;;;;;8.77;4.65;;;;;;;-5.07;79.54;101494.28;10606997;27;20051;-78
2022/12/06 02:32:33;;;;;;;7.07;4.25;;;;;;;-5.19;80.18;101492.91;10590342;27;20036;-78
2022/12/06 02:37:47;;;;;;;8.52;4.55;;;;;;;-5.11;80.16;101479.56;10605102;27;20061;-78
2022/12/06 02:42:57;;;;;;;7.25;3.95;;;;;;;-5.12;80.56;101461.81;10568586;28;20035;-78
2022/12/06 02:48:01;;;;;;;9.43;4.72;;;;;;;-5.17;80.61;101451.59;10586652;28;20414;-78
2022/12/06 02:53:06;;;;;;;11.43;4.93;;;;;;;-5.33;80.81;101454.19;10576263;28;20036;-78
2022/12/06 02:58:09;;;;;;;7.93;4.40;;;;;;;-5.47;80.81;101447.56;10556854;28;20437;-78
2022/12/06 03:03:17;;;;;;;7.97;4.47;;;;;;;-5.33;81.87;101450.66;10584685;28;20055;-79
2022/12/06 03:08:42;;;;;;;8.05;4.20;;;;;;;-5.35;81.82;101440.13;10592034;28;20502;-79
2022/12/06 03:14:07;;;;;;;11.63;4.93;;;;;;;-5.55;81.81;101441.34;10570264;28;20048;-79
2022/12/06 03:19:26;;;;;;;9.38;4.78;;;;;;;-5.58;81.95;101438.94;10535530;27;20059;-78
2022/12/06 03:24:32;;;;;;;9.35;4.90;;;;;;;-5.64;82.33;101434.25;10586165;28;20045;-79
2022/12/06 03:29:39;;;;;;;9.63;4.95;;;;;;;-5.62;82.10;101438.44;10590425;28;20047;-77
2022/12/06 03:34:44;;;;;;;10.05;5.28;;;;;;;-5.64;81.99;101431.56;10587017;27;20051;-77
2022/12/06 03:39:51;;;;;;;11.57;5.38;;;;;;;-5.63;81.77;101423.38;10616416;27;20054;-77
2022/12/06 03:44:53;;;;;;;8.95;5.40;;;;;;;-5.40;81.86;101417.50;10614311;28;20075;-78
2022/12/06 03:49:58;;;;;;;7.95;4.03;;;;;;;-5.40;81.56;101409.47;10621350;27;20536;-76
2022/12/06 03:55:00;;;;;;;8.32;3.83;;;;;;;-5.58;80.99;101407.72;10590776;27;20047;-77
2022/12/06 04:00:04;;;;;;;9.77;3.92;;;;;;;-5.63;81.58;101403.84;10596304;28;20058;-74
2022/12/06 04:05:13;;;;;;;6.90;4.03;;;;;;;-5.64;81.51;101400.31;10596828;27;20036;-75
2022/12/06 04:10:16;;;;;;;11.25;4.50;;;;;;;-5.77;81.44;101392.72;10618220;27;20046;-77
2022/12/06 04:15:20;;;;;;;8.23;4.18;;;;;;;-5.68;82.03;101376.75;10614344;27;20050;-77
2022/12/06 04:20:22;;;;;;;8.50;4.53;;;;;;;-5.87;82.10;101365.25;10625007;27;20501;-76
2022/12/06 04:25:25;;;;;;;7.63;4.45;;;;;;;-5.86;81.94;101361.59;10624841;27;20557;-77
2022/12/06 04:43:40;;;;;;;11.13;4.78;;;;;;;-5.72;81.83;101340.63;10545437;28;20052;-77
2022/12/06 04:46:35;;;;;;;11.00;5.13;;;;;;;-5.66;81.63;101338.16;10551923;28;20446;-77
2022/12/06 04:51:37;;;;;;;8.02;4.40;;;;;;;-5.52;81.49;101339.41;10516094;28;20032;-77
2022/12/06 04:56:39;;;;;;;10.02;4.85;;;;;;;-5.57;82.00;101333.69;10543390;28;20044;-77
2022/12/06 05:01:42;;;;;;;10.45;4.80;;;;;;;-5.80;81.50;101328.88;10541840;28;20048;-76
2022/12/06 05:06:44;;;;;;;10.05;5.05;;;;;;;-5.58;82.09;101332.84;10547897;28;20414;-76
2022/12/06 05:11:47;;;;;;;10.40;4.47;;;;;;;-5.53;82.30;101324.38;10542777;28;20499;-77
2022/12/06 05:16:49;;;;;;;13.45;5.75;;;;;;;-5.56;82.06;101320.16;10538636;28;20530;-77
2022/12/06 05:21:51;;;;;;;9.40;4.82;;;;;;;-5.65;81.81;101315.78;10532609;28;20506;-78
2022/12/06 05:26:54;;;;;;;9.57;5.38;;;;;;;-5.56;82.05;101298.75;10544152;28;20032;-78
2022/12/06 05:31:56;;;;;;;11.13;5.20;;;;;;;-5.66;82.13;101303.41;10552324;28;20047;-78
2022/12/06 05:36:58;;;;;;;9.65;4.85;;;;;;;-5.44;82.49;101296.66;10596532;27;20051;-77
2022/12/06 05:42:01;;;;;;;11.27;5.68;;;;;;;-5.48;82.39;101290.78;10636051;27;20043;-77
2022/12/06 05:47:03;;;;;;;9.80;4.07;;;;;;;-5.39;81.83;101288.13;10660613;27;20042;-76
2022/12/06 05:52:08;;;;;;;13.63;5.30;;;;;;;-5.69;81.74;101286.84;10658102;27;20035;-77
2022/12/06 05:57:11;;;;;;;10.45;5.03;;;;;;;-5.72;82.26;101281.84;10643056;27;20054;-77
2022/12/06 06:02:14;;;;;;;10.30;4.65;;;;;;;-5.65;82.65;101285.53;10642769;27;20074;-77
2022/12/06 06:07:16;;;;;;;11.55;4.90;;;;;;;-5.63;82.55;101267.50;10642933;27;20047;-77
2022/12/06 06:12:19;;;;;;;9.93;5.00;;;;;;;-5.49;82.18;101266.88;10600882;27;20047;-77
2022/12/06 06:17:23;;;;;;;8.75;4.82;;;;;;;-5.55;81.73;101259.53;10557286;28;20044;-77
2022/12/06 06:22:25;;;;;;;8.88;3.85;;;;;;;-5.49;82.04;101257.03;10557190;28;20040;-78
2022/12/06 06:27:30;;;;;;;11.57;5.00;;;;;;;-5.50;81.73;101247.34;10610106;28;20054;-77
2022/12/06 06:32:33;;;;;;;7.38;3.70;;;;;;;-5.62;81.51;101234.41;10617307;28;20050;-76
2022/12/06 06:37:35;;;;;;;10.32;4.40;;;;;;;-5.47;81.66;101239.00;10617126;28;20074;-77
2022/12/06 06:42:38;;;;;;;12.57;5.00;;;;;;;-5.80;81.28;101230.00;10617695;28;20039;-77
2022/12/06 06:47:40;;;;;;;8.45;4.07;;;;;;;-5.83;81.36;101233.00;10616285;28;20035;-77
2022/12/06 06:52:43;;;;;;;11.25;4.22;;;;;;;-5.80;81.26;101223.81;10612984;28;20055;-77
2022/12/06 06:57:46;;;;;;;11.20;5.10;;;;;;;-6.03;81.58;101226.25;10616558;28;20051;-77
2022/12/06 07:02:48;;;;;;;12.50;4.45;;;;;;;-5.91;81.73;101219.59;10616163;28;20035;-77
2022/12/06 07:07:50;;;;;;;8.00;3.90;;;;;;;-5.95;81.29;101231.63;10606940;28;20047;-77
2022/12/06 07:12:53;;;;;;;9.25;4.60;;;;;;;-5.99;81.27;101216.91;10658360;27;20047;-77
2022/12/06 07:17:55;;;;;;;10.15;4.60;;;;;;;-6.14;81.48;101229.19;10639889;27;20062;-77
2022/12/06 07:22:58;;;;;;;12.00;5.25;;;;;;;-5.99;82.05;101224.09;10639393;27;20038;-77
2022/12/06 07:28:04;;;;;;;8.52;4.60;;;;;;;-5.97;81.61;101228.28;10639616;27;20039;-75
2022/12/06 07:33:06;;;;;;;7.47;3.47;;;;;;;-6.08;81.47;101226.72;10658010;27;20047;-76
2022/12/06 07:38:09;;;;;;;8.07;4.40;;;;;;;-6.06;81.59;101215.88;10656764;27;20059;-77
2022/12/06 07:48:33;;;;;;;8.23;3.35;;;;;;;-6.17;81.29;101216.16;10657181;27;20055;-77
2022/12/06 07:53:35;;;;;;;7.90;3.58;;;;;;;-6.09;81.78;101222.34;10638022;27;20492;-77
2022/12/06 07:59:03;;;;;;;12.57;5.50;;;;;;;-6.09;81.53;101224.19;10656391;27;20039;-78
2022/12/06 08:04:06;;;;;;;7.25;3.72;;;;;;;-6.08;82.44;101215.19;10654338;27;20039;-77
2022/12/06 08:09:09;;;;;;;11.15;4.75;;;;;;;-5.91;82.03;101219.59;10634021;27;20031;-78
2022/12/06 08:14:11;;;;;;;7.20;4.18;;;;;;;-5.77;82.13;101216.31;10612470;28;20516;-78
2022/12/06 08:19:13;;;;;;;9.13;4.13;;;;;;;-5.68;82.80;101217.19;10578172;28;20449;-78
2022/12/06 08:24:16;;;;;;;7.35;4.40;;;;;;;-5.52;82.84;101205.72;10612329;28;20048;-77
2022/12/06 08:29:18;;;;;;;7.50;4.95;;;;;;;-5.44;82.49;101213.75;10613262;28;20051;-77
2022/12/06 08:34:45;;;;;;;9.00;4.03;;;;;;;-5.52;82.50;101211.91;10620253;27;20058;-77
2022/12/06 08:39:47;;;;;;;7.60;4.05;;;;;;;-5.63;82.32;101206.00;10619864;27;20043;-77
2022/12/06 08:44:54;;;;;;;10.38;4.78;;;;;;;-5.53;82.79;101196.88;10627312;27;20039;-77
2022/12/06 08:49:57;;;;;;;11.27;4.95;;;;;;;-5.66;82.91;101191.13;10612072;28;20036;-77
2022/12/06 08:54:59;;;;;;;11.27;4.55;;;;;;;-5.77;83.25;101176.22;10579205;28;20032;-77
2022/12/06 09:00:07;;;;;;;8.88;3.95;;;;;;;-5.65;83.14;101171.41;10579903;27;20529;-77
2022/12/06 09:05:13;;;;;;;7.18;3.38;;;;;;;-5.72;83.15;101170.41;10636392;27;20054;-77
2022/12/06 09:10:19;;;;;;;6.43;2.90;;;;;;;-5.71;82.66;101164.06;10653421;27;20043;-77
2022/12/06 09:15:21;;;;;;;7.55;3.72;;;;;;;-5.91;82.82;101160.81;10579136;28;20039;-76
2022/12/06 09:20:23;;;;;;;8.40;4.28;;;;;;;-5.89;82.23;101158.00;10618428;28;20058;-77
2022/12/06 09:25:25;;;;;;;5.45;2.83;;;;;;;-5.89;82.77;101158.00;10653949;28;20043;-77
2022/12/06 09:30:27;;;;;;;7.90;3.63;;;;;;;-6.08;82.48;101151.06;10623530;28;20047;-76
2022/12/06 09:35:30;;;;;;;8.80;4.68;;;;;;;-5.94;82.66;101149.63;10609607;28;20085;-76
2022/12/06 09:40:43;;;;;;;9.95;4.03;;;;;;;-5.90;82.87;101151.84;10619181;28;20074;-79
2022/12/06 09:46:17;;;;;;;5.28;3.60;;;;;;;-6.01;82.28;101141.44;10635220;28;20035;-78
2022/12/06 09:51:37;;;;;;;6.93;2.90;;;;;;;-6.06;82.31;101146.44;10652963;28;20047;-78
2022/12/06 09:56:49;;;;;;;6.85;3.47;;;;;;;-6.06;81.88;101140.25;10615415;28;20086;-80
2022/12/06 10:02:32;;;;;;;9.65;4.30;;;;;;;-5.98;82.09;101134.94;10620252;28;20036;-81
2022/12/06 10:07:58;;;;;;;7.72;4.15;;;;;;;-6.03;81.61;101132.75;10590489;28;20505;-79
2022/12/06 10:13:11;;;;;;;7.15;3.55;;;;;;;-6.00;81.48;101119.06;10615465;28;20528;-81
2022/12/06 10:18:20;;;;;;;9.75;3.67;;;;;;;-5.90;80.90;101114.44;10609160;28;20042;-82
2022/12/06 10:23:46;;;;;;;6.78;3.85;;;;;;;-5.92;80.54;101103.03;10619036;27;20047;-83
2022/12/06 10:29:29;;;;;;;5.60;3.03;;;;;;;-5.86;80.17;101105.06;10644168;27;20072;-82
2022/12/06 10:34:43;;;;;;;5.63;3.15;;;;;;;-5.89;79.94;101080.50;10625297;27;20043;-81
2022/12/06 10:39:53;;;;;;;4.50;2.80;;;;;;;-6.02;79.70;101080.16;10613341;27;20043;-79
2022/12/06 10:47:02;;;;;;;7.43;3.80;;;;;;;-5.85;80.15;101080.00;10650491;27;20489;-80
2022/12/06 10:50:38;;;;;;;7.65;3.63;;;;;;;-5.79;80.05;101074.00;10640732;27;20063;-79
2022/12/06 10:55:54;;;;;;;8.45;3.40;;;;;;;-5.83;79.61;101064.63;10601055;27;20045;-83
2022/12/06 11:00:59;;;;;;;9.00;3.92;;;;;;;-5.88;79.60;101064.31;10607278;27;20051;-83
2022/12/06 11:06:18;;;;;;;3.92;2.75;;;;;;;-5.73;79.75;101058.28;10602288;27;20345;-80
2022/12/06 11:11:30;;;;;;;4.90;3.55;;;;;;;-5.73;79.92;101052.94;10645460;27;20058;-81
2022/12/06 11:16:38;;;;;;;9.32;4.50;;;;;;;-5.78;79.85;101043.59;10605925;28;20059;-81
2022/12/06 11:21:52;;;;;;;7.03;3.45;;;;;;;-5.75;79.90;101042.41;10612234;27;20043;-81
2022/12/06 11:27:08;;;;;;;9.00;4.38;;;;;;;-5.59;79.92;101037.09;10617805;27;20036;-83
2022/12/06 11:32:11;;;;;;;7.32;4.30;;;;;;;-5.49;79.51;101032.41;10601523;27;20052;-83
2022/12/06 11:37:19;;;;;;;6.28;3.67;;;;;;;-5.54;79.60;101029.44;10604677;28;20517;-83
2022/12/06 11:42:24;;;;;;;6.47;3.45;;;;;;;-5.65;79.18;101031.59;10557226;28;20222;-84
2022/12/06 11:47:27;;;;;;;5.45;3.47;;;;;;;-5.70;79.66;101028.59;10554813;28;20043;-84
2022/12/06 11:52:36;;;;;;;4.57;3.50;;;;;;;-5.59;80.21;101015.69;10572143;28;20541;-84
2022/12/06 11:57:43;;;;;;;3.78;3.10;;;;;;;-5.66;80.23;101008.53;10537947;28;20036;-83
2022/12/06 12:02:48;;;;;;;9.18;4.78;;;;;;;-5.64;80.07;101014.53;10553393;28;20059;-84
2022/12/06 12:07:54;;;;;;;10.15;4.70;;;;;;;-5.79;79.76;101009.84;10574001;28;20498;-83
2022/12/06 12:19:16;;;;;;;6.05;3.28;;;;;;;-5.63;80.61;101009.03;10651902;27;20137;-83
2022/12/06 12:24:46;;;;;;;7.53;4.53;;;;;;;-5.59;81.18;101007.69;10593964;27;20035;-83
2022/12/06 12:30:13;;;;;;;8.63;4.28;;;;;;;-5.53;80.30;100996.34;10603610;27;20055;-83
2022/12/06 12:35:25;;;;;;;7.85;3.85;;;;;;;-5.57;80.33;101011.03;10605078;27;20046;-83
2022/12/06 12:40:34;;;;;;;6.85;3.40;;;;;;;-5.60;80.27;101008.69;10569468;28;20039;-81
2022/12/06 12:45:39;;;;;;;9.32;4.57;;;;;;;-5.59;80.61;101010.34;10622453;27;20049;-84
2022/12/06 12:50:54;;;;;;;10.60;3.28;;;;;;;-5.40;80.18;101003.00;10568483;28;20043;-81
2022/12/06 12:56:26;;;;;;;5.13;3.63;;;;;;;-5.65;80.13;100994.16;10632675;27;20043;-82
2022/12/06 13:01:43;;;;;;;10.13;4.47;;;;;;;-5.56;80.64;100987.78;10576312;27;20056;-85
2022/12/06 13:06:50;;;;;;;10.18;4.38;;;;;;;-5.43;80.48;100993.47;10602868;27;20151;-81
2022/12/06 13:11:57;;;;;;;8.30;3.28;;;;;;;-5.49;80.74;100986.13;10607498;28;20378;-84
2022/12/06 13:17:05;;;;;;;13.73;5.32;;;;;;;-5.19;80.92;100982.75;10599109;28;20028;-82
2022/12/06 13:22:14;;;;;;;6.13;3.42;;;;;;;-5.29;80.96;100986.59;10593114;28;20048;-82
2022/12/06 13:27:18;;;;;;;6.18;2.88;;;;;;;-5.24;80.81;100978.91;10615247;28;20051;-85
2022/12/06 13:32:25;;;;;;;5.93;3.80;;;;;;;-5.22;80.17;100976.88;10638075;28;20047;-80
2022/12/06 13:37:43;;;;;;;7.65;4.20;;;;;;;-5.13;80.31;100977.72;10596277;28;20036;-77
2022/12/06 13:42:45;;;;;;;7.77;3.70;;;;;;;-5.24;80.08;100970.88;10609922;28;20084;-80
2022/12/06 13:47:49;;;;;;;8.05;3.38;;;;;;;-5.30;80.84;100975.06;10577226;28;20480;-85
2022/12/06 13:52:52;;;;;;;8.65;3.90;;;;;;;-5.20;80.99;100958.84;10583261;28;20460;-85
2022/12/06 13:57:54;;;;;;;7.05;3.33;;;;;;;-5.30;80.64;100959.03;10600794;27;20036;-81
2022/12/06 14:03:01;;;;;;;5.35;3.35;;;;;;;-5.44;80.33;100956.22;10634754;27;20096;-81
2022/12/06 14:08:04;;;;;;;4.85;3.60;;;;;;;-5.43;80.99;100961.38;10591237;27;20073;-83
2022/12/06 14:13:14;;;;;;;8.02;4.18;;;;;;;-5.40;81.28;100955.69;10619257;27;20046;-85
2022/12/06 14:18:25;;;;;;;7.80;4.68;;;;;;;-5.22;81.56;100960.84;10645228;27;20050;-85
2022/12/06 14:23:34;;;;;;;10.15;4.53;;;;;;;-5.13;81.28;100956.31;10640155;27;20047;-84
2022/12/06 14:28:36;;;;;;;;;;;;;;;-5.10;81.40;100955.97;10634302;27;20058;-84
2022/12/06 14:33:38;;;;;;;6.90;3.97;;;;;;;-5.21;81.30;100963.38;10614017;27;19982;-86
2022/12/06 14:38:41;;;;;;;7.97;3.65;;;;;;;-5.17;80.77;100953.16;10584579;28;20036;-84
2022/12/06 14:43:46;;;;;;;8.55;4.25;;;;;;;-5.34;81.25;100959.56;10629453;27;20066;-83
2022/12/06 14:54:39;;;;;;;7.80;4.57;;;;;;;-5.07;80.97;100963.66;10609816;27;20048;-81
2022/12/06 14:59:41;;;;;;;7.57;3.35;;;;;;;-5.26;80.61;100957.69;10611345;27;20050;-77
2022/12/06 15:04:43;;;;;;;8.13;3.65;;;;;;;-5.23;81.45;100953.81;10602896;27;20678;-80
2022/12/06 15:09:46;;;;;;;4.53;3.28;;;;;;;-4.93;81.43;100953.06;10628044;27;20408;-79
2022/12/06 15:14:48;;;;;;;6.60;3.40;;;;;;;-5.05;81.47;100948.25;10598855;28;20493;-78
2022/12/06 15:19:52;;;;;;;12.73;4.00;;;;;;;-5.03;81.23;100944.44;10624536;27;20053;-78
2022/12/06 15:24:56;;;;;;;8.60;4.43;;;;;;;-4.96;81.38;100944.56;10629107;27;20040;-78
2022/12/06 15:29:58;;;;;;;7.30;3.83;;;;;;;-4.89;81.83;100924.13;10619510;27;20031;-78
2022/12/06 15:35:00;;;;;;;8.45;4.07;;;;;;;-5.00;81.56;100924.50;10604188;28;20449;-78
2022/12/06 15:40:03;;;;;;;11.57;5.22;;;;;;;-4.96;81.38;100929.34;10621582;28;20051;-79
2022/12/06 15:45:13;;;;;;;6.20;3.60;;;;;;;-5.08;81.06;100930.72;10603975;28;20035;-77
2022/12/06 15:50:15;;;;;;;5.07;3.33;;;;;;;-5.01;81.31;100926.34;10598229;27;20039;-78
2022/12/06 15:55:18;;;;;;;6.38;3.47;;;;;;;-4.96;81.36;100939.22;10589912;28;20414;-78
2022/12/06 16:00:20;;;;;;;9.43;4.18;;;;;;;-5.00;81.52;100928.03;10610425;28;20043;-79
2022/12/06 16:05:23;;;;;;;7.40;4.35;;;;;;;-4.65;81.99;100918.66;10610329;28;20520;-79
2022/12/06 16:10:25;;;;;;;10.38;3.83;;;;;;;-4.93;81.05;100914.78;10609598;28;20036;-79
2022/12/06 16:15:27;;;;;;;11.15;4.35;;;;;;;-4.97;81.27;100916.13;10590992;28;20040;-79
2022/12/06 16:20:30;;;;;;;7.72;4.18;;;;;;;-5.12;81.45;100917.84;10574092;28;20062;-79
2022/12/06 16:25:32;;;;;;;7.82;4.40;;;;;;;-4.96;82.28;100912.44;10608866;28;20046;-78
2022/12/06 16:30:34;;;;;;;8.25;4.25;;;;;;;-5.13;82.37;100917.03;10592315;28;20032;-79
2022/12/06 16:35:36;;;;;;;8.82;4.18;;;;;;;-5.02;81.70;100910.47;10587808;27;20093;-77
2022/12/06 16:40:39;;;;;;;11.55;4.88;;;;;;;-5.03;82.08;100908.78;10603703;27;20052;-80
2022/12/06 16:45:43;;;;;;;8.82;3.65;;;;;;;-4.97;81.94;100908.09;10607363;27;20513;-82
2022/12/06 16:50:46;;;;;;;8.93;3.75;;;;;;;-5.23;81.25;100903.84;10592776;27;20062;-81
2022/12/06 16:55:48;;;;;;;4.18;2.97;;;;;;;-5.38;81.08;100899.38;10593078;27;20126;-76
2022/12/06 17:00:51;;;;;;;4.88;2.95;;;;;;;-5.22;81.73;100910.84;10584405;28;20134;-80
2022/12/06 17:05:53;;;;;;;5.72;3.22;;;;;;;-5.22;81.48;100900.16;10588047;28;20052;-76
2022/12/06 17:12:01;;;;;;;4.50;2.30;;;;;;;-5.39;81.30;100898.53;10606500;28;20046;-76
2022/12/06 17:16:17;;;;;;;5.10;3.33;;;;;;;-5.26;81.39;100889.97;10592309;28;20032;-78
2022/12/06 17:21:19;;;;;;;7.47;4.00;;;;;;;-5.26;81.65;100896.16;10603173;28;20059;-77
2022/12/06 17:26:21;;;;;;;9.90;3.63;;;;;;;-5.33;81.56;100897.88;10588252;28;20040;-77
2022/12/06 17:31:24;;;;;;;4.45;3.10;;;;;;;-5.22;81.72;100884.09;10607260;28;20043;-78
2022/12/06 17:36:26;;;;;;;5.03;2.97;;;;;;;-5.36;81.52;100884.84;10614096;28;20039;-78
2022/12/06 17:46:49;;;;;;;6.35;3.58;;;;;;;-5.11;82.29;100876.72;10599240;27;20047;-77
2022/12/06 17:51:52;;;;;;;6.05;3.63;;;;;;;-5.11;82.18;100866.84;10594681;28;20031;-77
2022/12/06 17:56:57;;;;;;;4.60;2.80;;;;;;;-5.09;82.05;100878.22;10615865;27;20034;-78
2022/12/06 18:02:02;;;;;;;5.43;2.83;;;;;;;-5.10;81.87;100862.34;10597575;28;20047;-78
2022/12/06 18:07:04;;;;;;;3.22;2.17;;;;;;;-5.26;81.92;100858.72;10614182;28;20421;-78
2022/12/06 18:12:12;;;;;;;4.70;3.05;;;;;;;-5.36;81.58;100860.78;10615869;27;20035;-77
2022/12/06 18:17:14;;;;;;;7.82;4.07;;;;;;;-5.25;82.15;100863.06;10595001;28;20039;-77
2022/12/06 18:22:16;;;;;;;5.97;3.65;;;;;;;-5.36;82.66;100859.94;10626600;27;20115;-77
2022/12/06 18:27:19;;;;;;;8.30;4.90;;;;;;;-5.25;82.53;100862.22;10599010;28;20047;-77
2022/12/06 18:32:21;;;;;;;3.83;2.08;;;;;;;-5.35;82.42;100850.91;10617568;28;20055;-77
2022/12/06 18:37:23;;;;;;;6.45;3.55;;;;;;;-5.50;82.84;100850.78;10617423;28;20441;-78
2022/12/06 18:42:25;;;;;;;5.78;3.67;;;;;;;-5.69;82.64;100853.84;10584336;27;20047;-78
2022/12/06 18:47:31;;;;;;;6.15;3.33;;;;;;;-5.70;82.81;100838.81;10611535;28;20055;-77
2022/12/06 18:52:34;;;;;;;5.40;3.13;;;;;;;-5.39;83.52;100847.72;10577742;28;20051;-77
2022/12/06 18:57:37;;;;;;;7.93;3.38;;;;;;;-5.13;83.36;100846.63;10612691;28;20082;-78
2022/12/06 19:02:39;;;;;;;8.60;3.38;;;;;;;-5.03;82.80;100839.22;10614868;28;20047;-78
2022/12/06 19:07:43;;;;;;;5.18;3.30;;;;;;;-5.14;81.96;100834.28;10593844;28;20054;-78
2022/12/06 19:12:46;;;;;;;6.75;3.25;;;;;;;-5.07;81.84;100835.22;10612374;28;20533;-78
2022/12/06 19:17:51;;;;;;;4.75;3.20;;;;;;;-5.26;81.67;100828.47;10602526;27;20043;-79
2022/12/06 19:22:53;;;;;;;5.47;3.28;;;;;;;-5.02;82.10;100827.53;10591484;27;20039;-78
2022/12/06 19:27:55;;;;;;;8.20;4.30;;;;;;;-5.12;81.23;100825.06;10595335;27;20040;-77
2022/12/06 19:32:57;;;;;;;6.82;3.42;;;;;;;-5.07;81.56;100821.84;10616086;28;20509;-79
2022/12/06 19:37:59;;;;;;;6.28;3.42;;;;;;;-5.10;81.09;100822.19;10603139;28;20050;-79
2022/12/06 19:48:25;;;;;;;7.10;3.53;;;;;;;-5.37;81.57;100819.00;10616500;27;20032;-79
2022/12/06 19:53:32;;;;;;;8.27;3.45;;;;;;;-5.39;82.02;100825.50;10602385;27;20050;-81
2022/12/06 19:58:34;;;;;;;5.82;3.80;;;;;;;-5.35;81.92;100832.19;10586756;27;20036;-78
2022/12/06 20:03:37;;;;;;;5.68;2.70;;;;;;;-5.26;82.02;100826.63;10621500;27;20047;-79
2022/12/06 20:08:39;;;;;;;8.63;3.30;;;;;;;-5.22;81.80;100816.41;10612096;27;20048;-78
2022/12/06 20:13:41;;;;;;;9.57;5.10;;;;;;;-5.28;81.92;100817.09;10605036;27;20043;-77
2022/12/06 20:18:43;;;;;;;8.18;4.38;;;;;;;-5.23;81.51;100820.06;10627310;27;20037;-77
2022/12/06 20:23:49;;;;;;;9.73;4.50;;;;;;;-5.20;81.59;100812.56;10600813;27;20035;-79
2022/12/06 20:28:51;;;;;;;6.75;4.43;;;;;;;-5.22;81.54;100811.88;10614843;28;20131;-79
2022/12/06 20:33:58;;;;;;;9.85;5.35;;;;;;;-5.24;81.49;100805.88;10640743;27;20046;-80
2022/12/06 20:39:06;;;;;;;8.73;5.00;;;;;;;-5.17;81.90;100804.19;10629778;27;20051;-77
2022/12/06 20:44:14;;;;;;;9.25;4.72;;;;;;;-5.12;81.55;100800.16;10621543;27;20040;-80
2022/12/06 20:49:16;;;;;;;8.10;5.05;;;;;;;-5.03;82.19;100797.25;10616906;28;20442;-77
2022/12/06 20:54:18;;;;;;;9.98;5.38;;;;;;;-5.25;82.99;100787.31;10594112;27;20046;-76
2022/12/06 20:59:21;;;;;;;14.10;5.57;;;;;;;-5.21;83.56;100786.81;10600749;27;20048;-77
2022/12/06 21:04:42;;;;;;;11.73;4.95;;;;;;;-5.08;83.89;100777.38;10615051;27;20039;-77
2022/12/06 21:09:44;;;;;;;8.88;5.13;;;;;;;-5.04;84.61;100768.81;10630840;27;20528;-75
2022/12/06 21:14:46;;;;;;;9.20;4.93;;;;;;;-4.93;84.68;100771.09;10629416;28;20046;-77
2022/12/06 21:19:48;;;;;;;10.77;6.00;;;;;;;-4.99;84.41;100771.81;10587801;28;20058;-78
2022/12/06 21:24:54;;;;;;;11.90;6.25;;;;;;;-4.98;84.63;100762.78;10603227;28;20062;-77
2022/12/06 21:29:57;;;;;;;10.68;6.05;;;;;;;-4.98;84.46;100751.25;10572091;28;20043;-77
2022/12/06 21:34:59;;;;;;;9.77;5.22;;;;;;;-5.16;84.53;100759.53;10582939;28;20066;-78
2022/12/06 21:40:01;;;;;;;10.20;5.25;;;;;;;-5.02;84.76;100768.66;10653231;28;20051;-78
2022/12/06 21:45:04;;;;;;;9.77;4.85;;;;;;;-5.11;85.18;100759.00;10633080;28;20533;-75
2022/12/06 21:50:07;;;;;;;10.20;5.50;;;;;;;-4.94;85.45;100747.19;10624433;28;20258;-78
2022/12/06 21:55:10;;;;;;;11.38;5.05;;;;;;;-4.87;84.85;100743.63;10607947;28;20478;-78
2022/12/06 22:00:14;;;;;;;12.43;5.43;;;;;;;-4.87;84.58;100742.78;10634592;28;20054;-79
2022/12/06 22:05:16;;;;;;;8.40;4.93;;;;;;;-4.85;84.81;100740.78;10611508;28;20045;-76
2022/12/06 22:10:18;;;;;;;10.65;5.20;;;;;;;-4.78;84.62;100741.72;10587857;28;20054;-76
2022/12/06 22:15:20;;;;;;;10.43;5.88;;;;;;;-4.88;84.70;100733.91;10631007;28;20043;-77
2022/12/06 22:20:23;;;;;;;10.13;5.22;;;;;;;-5.01;84.64;100732.88;10609369;28;20059;-77
2022/12/06 22:25:25;;;;;;;9.25;5.80;;;;;;;-5.08;84.71;100723.88;10590963;27;20028;-77
2022/12/06 22:30:27;;;;;;;8.82;4.72;;;;;;;-5.07;84.80;100730.88;10664588;27;20567;-76
2022/12/06 22:35:29;;;;;;;8.82;5.30;;;;;;;-5.14;84.69;100725.41;10619792;27;20039;-77
2022/12/06 22:40:32;;;;;;;11.05;5.93;;;;;;;-5.05;85.03;100739.56;10646444;27;20058;-77
2022/12/06 22:45:34;;;;;;;10.88;5.50;;;;;;;-4.99;84.92;100718.31;10636134;27;20405;-77
2022/12/06 22:50:37;;;;;;;10.95;5.53;;;;;;;-4.95;85.20;100734.81;10636553;27;20510;-76
2022/12/06 22:55:40;;;;;;;11.20;5.55;;;;;;;-4.99;84.35;100731.69;10603349;27;20035;-75
2022/12/06 23:00:42;;;;;;;9.43;5.35;;;;;;;-5.01;84.69;100717.66;10595049;27;20047;-77
2022/12/06 23:05:44;;;;;;;8.80;4.95;;;;;;;-4.96;84.59;100734.00;10605526;27;20040;-74
2022/12/06 23:10:46;;;;;;;9.05;5.38;;;;;;;-4.94;83.89;100741.84;10604135;27;20063;-76
2022/12/06 23:16:00;;;;;;;10.77;5.22;;;;;;;-5.07;83.90;100744.25;10603945;27;20069;-76
2022/12/06 23:21:04;;;;;;;9.23;5.15;;;;;;;-5.09;83.37;100727.56;10655859;27;20055;-77
2022/12/06 23:26:10;;;;;;;9.10;5.60;;;;;;;-5.11;83.63;100737.59;10602698;27;20062;-77
2022/12/06 23:31:16;;;;;;;10.05;4.80;;;;;;;-5.08;83.04;100732.72;10609176;28;20418;-77
2022/12/06 23:36:21;;;;;;;9.57;5.22;;;;;;;-5.07;82.99;100731.72;10595897;28;20489;-78
2022/12/06 23:41:27;;;;;;;10.02;5.13;;;;;;;-5.00;82.84;100731.84;10590841;28;20043;-78
2022/12/06 23:46:31;;;;;;;11.48;5.75;;;;;;;-4.95;83.14;100737.50;10588316;28;20425;-77
2022/12/06 23:51:36;;;;;;;9.20;5.25;;;;;;;-4.86;83.16;100739.94;10630554;27;20401;-77
2022/12/06 23:56:40;;;;;;;9.45;4.78;;;;;;;-4.93;82.91;100741.66;10647299;27;20039;-77
